Flight Track Log - Related Links

Times and Time Zones

All times are in EDT time to prevent confusion due to time zone crossing. See the DAL1551 flight status page for this flight to view local times or setup timezone preferences in your user account.

Time Position Orientation Groundspeed Altitude Reporting Facility
EDT Latitude Longitude Course Direction KTS MPH feet Rate Location/Type
Sun 10:34:21 PM 36.0747 -115.1819 94° East 200 230 3,300  Level Los Angeles Center
Sun 10:35:40 PM 36.0856 -115.2822 278° West 242 278 5,900 2,160 Climbing Los Angeles Center
Sun 10:36:01 PM 36.1083 -115.2939 338° Northwest 254 292 6,900 2,459 Climbing Los Angeles Center
Sun 10:36:41 PM 36.1467 -115.2942 360° North 239 275 8,400 2,516 Climbing Los Angeles Center
Sun 10:37:00 PM 36.1833 -114.9045 90° East  Level FlightAware Approximate
Sun 10:37:03 PM 36.1669 -115.2675 47° Northeast 255 293 9,500  Level Los Angeles Center
Sun 10:38:00 PM 36.1991 -114.7512 94° East  Level FlightAware Approximate
Sun 10:38:04 PM 36.1969 -115.1825 66° East 267 307 10,900  Level Los Angeles Center
Sun 10:39:00 PM 36.1894 -114.5966 94° East  Level FlightAware Approximate
Sun 10:39:06 PM 36.1975 -115.0617 90° East 342 394 12,200  Level Los Angeles Center
Sun 10:40:07 PM 36.1983 -114.9275 90° East 378 435 14,200 1,951 Climbing Los Angeles Center
Sun 10:41:09 PM 36.2000 -114.7872 89° East 400 460 16,200 1,984 Climbing Los Angeles Center
Sun 10:42:11 PM 36.1975 -114.6397 91° East 424 488 18,300 2,146 Climbing Los Angeles Center
Sun 10:43:12 PM 36.1956 -114.4636 91° East 427 491 20,600 1,805 Climbing Los Angeles Center
Sun 10:44:14 PM 36.1922 -114.3119 92° East 438 504 22,000 1,366 Climbing Los Angeles Center
Sun 10:45:15 PM 36.2444 -114.1758 65° Northeast 460 529 23,400 1,415 Climbing Los Angeles Center
Sun 10:46:17 PM 36.3211 -114.0511 53° Northeast 460 529 24,900 1,790 Climbing Los Angeles Center
Sun 10:47:19 PM 36.3942 -113.9239 54° Northeast 457 526 27,100 1,951 Climbing Los Angeles Center
Sun 10:48:20 PM 36.4658 -113.7997 54° Northeast 446 513 28,900 927 Climbing Los Angeles Center
Sun 10:49:22 PM 36.5400 -113.6719 54° Northeast 435 501 29,000 49 Climbing Los Angeles Center
Sun 10:50:23 PM 36.6081 -113.5483 56° Northeast 434 499 29,000  Level Los Angeles Center
Sun 10:51:25 PM 36.6781 -113.4258 55° Northeast 435 501 29,000  Level Los Angeles Center
Sun 10:52:27 PM 36.7472 -113.3025 55° Northeast 435 501 29,000  Level Los Angeles Center
Sun 10:53:28 PM 36.8292 -113.1542 55° Northeast 435 501 29,000  Level Los Angeles Center
Sun 10:54:30 PM 36.8986 -113.0311 55° Northeast 436 502 29,000  Level Los Angeles Center
Sun 10:55:32 PM 36.9667 -112.9081 55° Northeast 434 499 29,000  Level Los Angeles Center
Sun 10:56:33 PM 37.0361 -112.7828 55° Northeast 438 504 29,000  Level Los Angeles Center
Sun 10:57:35 PM 37.1050 -112.6586 55° Northeast 439 505 29,000  Level Los Angeles Center
Sun 10:58:37 PM 37.1739 -112.5339 55° Northeast 439 505 29,000  Level Los Angeles Center
Sun 10:59:38 PM 37.2569 -112.3856 55° Northeast 438 504 29,000  Level Los Angeles Center
Sun 11:00:40 PM 37.3258 -112.2608 55° Northeast 438 504 29,000  Level Los Angeles Center
Sun 11:01:36 PM 37.3942 -112.1339 56° Northeast 439 505 29,000  Level Salt Lake Center
Sun 11:02:37 PM 37.4622 -112.0083 56° Northeast 439 505 29,000  Level Salt Lake Center
Sun 11:03:39 PM 37.5303 -111.8828 56° Northeast 437 503 29,000  Level Salt Lake Center
Sun 11:04:15 PM 37.5714 -111.8061 56° Northeast 438 504 29,000  Level Denver Center
Sun 11:05:16 PM 37.6394 -111.6781 56° Northeast 442 509 29,000  Level Denver Center
Sun 11:05:41 PM 37.6672 -111.6272 55° Northeast 442 509 29,000  Level Salt Lake Center
Sun 11:06:42 PM 37.7344 -111.4992 56° Northeast 441 507 29,000  Level Salt Lake Center
Sun 11:07:43 PM 37.8028 -111.3711 56° Northeast 441 507 29,000  Level Salt Lake Center
Sun 11:08:44 PM 37.8714 -111.2425 56° Northeast 442 509 29,000  Level Salt Lake Center
Sun 11:09:45 PM 37.9397 -111.1131 56° Northeast 443 510 29,000  Level Salt Lake Center
Sun 11:10:22 PM 37.9794 -111.0350 57° Northeast 440 506 29,000  Level Denver Center
Sun 11:11:23 PM 38.0597 -110.8803 57° Northeast 442 509 29,000  Level Denver Center
Sun 11:11:47 PM 38.0819 -110.8394 55° Northeast 443 510 29,000  Level Salt Lake Center
Sun 11:12:48 PM 38.1475 -110.7133 57° Northeast 446 513 29,000  Level Salt Lake Center
Sun 11:13:49 PM 38.2233 -110.5669 57° Northeast 445 512 29,000  Level Salt Lake Center
Sun 11:14:26 PM 38.2658 -110.4819 57° Northeast 445 512 29,000  Level Denver Center
Sun 11:15:28 PM 38.3314 -110.3553 57° Northeast 446 513 29,000  Level Denver Center
Sun 11:16:29 PM 38.3969 -110.2294 56° Northeast 446 513 29,000  Level Denver Center
Sun 11:16:52 PM 38.4300 -110.1669 56° Northeast 445 512 29,000  Level Salt Lake Center
Sun 11:17:30 PM 38.4719 -110.0817 58° Northeast 445 512 29,000  Level Denver Center
Sun 11:18:31 PM 38.5367 -109.9528 57° Northeast 449 517 29,000  Level Denver Center
Sun 11:19:32 PM 38.6131 -109.8039 57° Northeast 450 518 29,000  Level Denver Center
Sun 11:20:33 PM 38.6775 -109.6747 57° Northeast 450 518 29,000  Level Denver Center
Sun 11:21:34 PM 38.7408 -109.5431 58° Northeast 457 526 29,000  Level Denver Center
Sun 11:22:35 PM 38.8158 -109.3931 57° Northeast 451 519 29,000  Level Denver Center
Sun 11:23:37 PM 38.8808 -109.2642 57° Northeast 451 519 29,000  Level Denver Center
Sun 11:24:38 PM 38.9444 -109.1336 58° Northeast 452 520 29,000  Level Denver Center
Sun 11:25:39 PM 39.0189 -108.9822 58° Northeast 449 517 29,000  Level Denver Center
Sun 11:26:40 PM 39.0817 -108.8522 58° Northeast 448 516 29,000  Level Denver Center
Sun 11:27:41 PM 39.1553 -108.7014 58° Northeast 449 517 29,000  Level Denver Center
Sun 11:28:42 PM 39.2181 -108.5719 58° Northeast 448 516 29,000  Level Denver Center
Sun 11:29:43 PM 39.2925 -108.4206 58° Northeast 450 518 29,000  Level Denver Center
Sun 11:30:45 PM 39.3569 -108.2878 58° Northeast 458 527 29,000  Level Denver Center
Sun 11:31:46 PM 39.4169 -108.1589 59° Northeast 443 510 29,000  Level Denver Center
Sun 11:32:47 PM 39.4908 -108.0058 58° Northeast 450 518 29,000  Level Denver Center
Sun 11:33:48 PM 39.5531 -107.8744 58° Northeast 449 517 29,000  Level Denver Center
Sun 11:34:49 PM 39.6150 -107.7422 59° Northeast 448 516 29,000  Level Denver Center
Sun 11:35:50 PM 39.6878 -107.5875 59° Northeast 451 519 29,000  Level Denver Center
Sun 11:36:51 PM 39.7503 -107.4544 59° Northeast 450 518 29,000  Level Denver Center
Sun 11:37:52 PM 39.8222 -107.3000 59° Northeast 448 516 29,000  Level Denver Center
Sun 11:38:53 PM 39.8800 -107.1764 59° Northeast 446 513 29,000  Level Denver Center
Sun 11:39:54 PM 39.9472 -107.0350 58° Northeast 453 521 29,000  Level Denver Center
Sun 11:41:07 PM 40.0192 -106.8764 59° Northeast 452 520 29,000  Level Denver Center
Sun 11:42:08 PM 40.0914 -106.7189 59° Northeast 453 521 29,000  Level Denver Center
Sun 11:43:09 PM 40.1642 -106.5614 59° Northeast 454 522 29,000  Level Denver Center
Sun 11:44:11 PM 40.2247 -106.4264 60° Northeast 451 519 29,000  Level Denver Center
Sun 11:45:12 PM 40.2861 -106.2922 59° Northeast 449 517 29,000  Level Denver Center
Sun 11:46:13 PM 40.3453 -106.1569 60° Northeast 448 516 29,000  Level Denver Center
Sun 11:47:14 PM 40.4089 -106.0139 60° Northeast 451 519 29,000  Level Denver Center
Sun 11:48:15 PM 40.4878 -105.8394 59° Northeast 454 522 29,000  Level Denver Center
Sun 11:49:16 PM 40.5494 -105.6986 60° Northeast 454 522 29,000  Level Denver Center
Sun 11:50:17 PM 40.6122 -105.5569 60° Northeast 451 519 29,000  Level Denver Center
Sun 11:51:18 PM 40.6781 -105.4033 60° Northeast 451 519 29,000  Level Denver Center
Sun 11:52:19 PM 40.7378 -105.2667 60° Northeast 451 519 29,000  Level Denver Center
Sun 11:53:20 PM 40.7967 -105.1314 60° Northeast 448 516 29,000  Level Denver Center
Sun 11:54:21 PM 40.8664 -104.9719 60° Northeast 449 517 29,000  Level Denver Center
Sun 11:55:22 PM 40.9150 -104.8572 61° Northeast 449 517 29,000  Level Denver Center
Sun 11:56:23 PM 40.9844 -104.6994 60° Northeast 446 513 29,000  Level Denver Center
Sun 11:57:24 PM 41.0519 -104.5394 61° Northeast 446 513 29,000  Level Denver Center
Sun 11:58:25 PM 41.1094 -104.4022 61° Northeast 446 513 29,000  Level Denver Center
Sun 11:59:26 PM 41.1675 -104.2653 61° Northeast 445 512 29,000  Level Denver Center
Mon 12:00:27 AM 41.2353 -104.1058 60° Northeast 444 511 29,000  Level Denver Center
Mon 12:01:28 AM 41.2917 -103.9692 61° Northeast 444 511 29,000  Level Denver Center
Mon 12:02:29 AM 41.3586 -103.8094 61° Northeast 444 511 29,000  Level Denver Center
Mon 12:03:30 AM 41.4167 -103.6708 61° Northeast 448 516 29,000  Level Denver Center
Mon 12:04:31 AM 41.4736 -103.5308 61° Northeast 450 518 29,000  Level Denver Center
Mon 12:05:32 AM 41.5411 -103.3692 61° Northeast 449 517 29,000  Level Denver Center
Mon 12:06:33 AM 41.5978 -103.2300 61° Northeast 448 516 29,000  Level Denver Center
Mon 12:07:34 AM 41.6542 -103.0911 61° Northeast 445 512 29,000  Level Denver Center
Mon 12:08:35 AM 41.7206 -102.9272 61° Northeast 447 514 29,000  Level Denver Center
Mon 12:09:36 AM 41.7772 -102.7867 62° Northeast 449 517 29,000  Level Denver Center
Mon 12:10:37 AM 41.8428 -102.6225 62° Northeast 448 516 29,000  Level Denver Center
Mon 12:11:38 AM 41.9017 -102.4794 61° Northeast 454 522 29,000  Level Denver Center
Mon 12:12:39 AM 41.9575 -102.3361 62° Northeast 454 522 29,000  Level Denver Center
Mon 12:13:39 AM 42.0228 -102.1725 62° Northeast 451 519 29,000  Level Denver Center
Mon 12:14:40 AM 42.0792 -102.0286 62° Northeast 453 521 29,000  Level Denver Center
Mon 12:15:41 AM 42.1353 -101.8853 62° Northeast 453 521 29,000  Level Denver Center
Mon 12:16:42 AM 42.2003 -101.7175 62° Northeast 452 520 29,000  Level Denver Center
Mon 12:17:43 AM 42.2550 -101.5742 63° Northeast 450 518 29,000  Level Denver Center
Mon 12:18:44 AM 42.3092 -101.4308 63° Northeast 449 517 29,000  Level Denver Center
Mon 12:19:45 AM 42.3728 -101.2628 63° Northeast 449 517 29,000  Level Denver Center
Mon 12:20:46 AM 42.4281 -101.1183 63° Northeast 450 518 29,000  Level Denver Center
Mon 12:21:47 AM 42.4822 -100.9736 63° Northeast 450 518 29,000  Level Denver Center
Mon 12:22:48 AM 42.5467 -100.8033 63° Northeast 454 522 29,000  Level Denver Center
Mon 12:23:49 AM 42.6000 -100.6589 63° Northeast 449 517 29,000  Level Denver Center
Mon 12:24:49 AM 42.6622 -100.4906 63° Northeast 446 513 29,000  Level Denver Center
Mon 12:25:50 AM 42.7167 -100.3436 63° Northeast 451 519 29,000  Level Denver Center
Mon 12:26:51 AM 42.7742 -100.1850 64° Northeast 454 522 29,000  Level Denver Center
Mon 12:27:52 AM 42.8294 -100.0319 64° Northeast 453 521 29,000  Level Denver Center
Mon 12:28:53 AM 42.8856 -99.8811 63° Northeast 450 518 29,000  Level Denver Center
Mon 12:29:42 AM 42.9297 -99.7611 63° Northeast 450 518 29,000  Level Minneapolis Center
Mon 12:30:43 AM 42.9900 -99.5933 64° Northeast 449 517 29,000  Level Minneapolis Center
Mon 12:31:55 AM 43.0450 -99.4419 64° Northeast 445 512 29,000  Level Minneapolis Center
Mon 12:32:56 AM 43.1106 -99.2572 64° Northeast 448 516 29,000  Level Minneapolis Center
Mon 12:33:56 AM 43.1575 -99.1225 64° Northeast 445 512 29,000  Level Minneapolis Center
Mon 12:34:56 AM 43.2003 -99.0014 64° Northeast 444 511 29,000  Level Minneapolis Center
Mon 12:35:57 AM 43.2628 -98.8222 64° Northeast 441 507 29,000  Level Minneapolis Center
Mon 12:36:57 AM 43.3153 -98.6703 65° Northeast 442 509 29,000  Level Minneapolis Center
Mon 12:37:57 AM 43.3694 -98.5181 64° Northeast 444 511 29,000  Level Minneapolis Center
Mon 12:38:58 AM 43.4164 -98.3617 68° East 444 511 29,000  Level Minneapolis Center
Mon 12:39:58 AM 43.4661 -98.2058 66° East 445 512 29,000  Level Minneapolis Center
Mon 12:40:58 AM 43.5144 -98.0511 67° East 444 511 29,000  Level Minneapolis Center
Mon 12:41:59 AM 43.5636 -97.8967 66° East 441 507 29,000  Level Minneapolis Center
Mon 12:42:59 AM 43.6114 -97.7417 67° East 441 507 29,000  Level Minneapolis Center
Mon 12:43:59 AM 43.6594 -97.5861 67° East 440 506 29,000  Level Minneapolis Center
Mon 12:45:00 AM 43.7167 -97.4000 67° East 440 506 29,000  Level Minneapolis Center
Mon 12:46:00 AM 43.7636 -97.2450 67° East 439 505 29,000  Level Minneapolis Center
Mon 12:47:00 AM 43.8111 -97.0889 67° East 440 506 29,000  Level Minneapolis Center
Mon 12:48:25 AM 43.8672 -96.9036 67° East 438 504 29,000  Level Minneapolis Center
Mon 12:49:25 AM 43.9228 -96.7167 68° East 437 503 29,000  Level Minneapolis Center
Mon 12:50:25 AM 43.9689 -96.5603 68° East 441 507 29,000  Level Minneapolis Center
Mon 12:51:26 AM 44.0147 -96.4050 68° East 439 505 29,000  Level Minneapolis Center
Mon 12:52:26 AM 44.0600 -96.2508 68° East 438 504 29,000  Level Minneapolis Center
Mon 12:53:26 AM 44.1047 -96.1000 68° East 437 503 29,000  Level Minneapolis Center
Mon 12:54:26 AM 44.1492 -95.9481 68° East 434 499 29,000  Level Minneapolis Center
Mon 12:55:27 AM 44.1933 -95.7931 68° East 435 501 29,000  Level Minneapolis Center
Mon 12:56:27 AM 44.2381 -95.6375 68° East 435 501 29,000  Level Minneapolis Center
Mon 12:57:27 AM 44.2822 -95.4819 68° East 434 499 29,000  Level Minneapolis Center
Mon 12:58:27 AM 44.3258 -95.3253 69° East 434 499 29,000  Level Minneapolis Center
Mon 12:59:28 AM 44.3694 -95.1697 69° East 432 497 29,000  Level Minneapolis Center
Mon 01:00:28 AM 44.4128 -95.0136 69° East 432 497 29,000 -300 Level Minneapolis Center
Mon 01:01:28 AM 44.4581 -94.8572 68° East 434 499 28,400 -2,033 Descending Minneapolis Center
Mon 01:02:29 AM 44.5003 -94.7000 69° East 433 498 24,900 -3,620 Descending Minneapolis Center
Mon 01:03:29 AM 44.5475 -94.5228 69° East 430 495 21,100 -3,550 Descending Minneapolis Center
Mon 01:04:29 AM 44.5906 -94.3683 69° East 427 491 17,800 -3,200 Descending Minneapolis Center
Mon 01:05:29 AM 44.6306 -94.2189 69° East 408 470 14,700 -2,777 Descending Minneapolis Center
Mon 01:06:30 AM 44.6622 -94.0742 73° East 391 450 12,200 -2,231 Descending Minneapolis Center
Mon 01:07:30 AM 44.6753 -93.9269 83° East 378 435 10,200 -1,200 Descending Minneapolis Center
Mon 01:08:30 AM 44.6864 -93.8058 83° East 307 353 9,800 -600 Descending Minneapolis Center
Mon 01:09:30 AM 44.6964 -93.6950 83° East 288 331 9,000 -645 Descending Minneapolis Center
Mon 01:10:31 AM 44.7064 -93.5850 83° East 284 327 8,500 -942 Descending Minneapolis Center
Mon 01:11:31 AM 44.7158 -93.4769 83° East 282 325 7,100 -750 Descending Minneapolis Center
Mon 01:12:31 AM 44.7250 -93.3683 83° East 281 323 7,000 -750 Descending Minneapolis Center
Mon 01:13:31 AM 44.7336 -93.2631 83° East 276 318 5,600 -1,000 Descending Minneapolis Center
Mon 01:14:31 AM 44.7422 -93.1692 83° East 264 304 5,000 -843 Descending Minneapolis Center
Mon 01:15:32 AM 44.7622 -93.0775 73° East 212 244 3,900 -992 Descending Minneapolis Center
Mon 01:16:32 AM 44.8106 -93.0639 11° North 200 230 3,000 -850 Descending Minneapolis Center
Mon 01:17:32 AM 44.8383 -93.1203 305° West 179 206 2,200 -800 Descending Minneapolis Center
Mon 01:18:32 AM 44.8597 -93.1689 302° West 151 174 1,400 -800 Descending Minneapolis Center

Login

Don't have an account? Register now (free) for customized features, flight alerts, and more!